createdAt,value
2017-05-01T00:00:35.100Z,46.53
2017-05-01T00:01:15.608Z,46.03
2017-05-01T00:01:56.106Z,46.41
2017-05-01T00:02:36.595Z,46.31
2017-05-01T00:03:17.134Z,46.51
2017-05-01T00:03:57.618Z,46.61
2017-05-01T00:04:38.106Z,46.51
2017-05-01T00:05:18.624Z,46.8
2017-05-01T00:05:59.090Z,46.7
2017-05-01T00:06:39.583Z,46.8
2017-05-01T00:07:20.053Z,46.89
2017-05-01T00:08:00.996Z,47.27
2017-05-01T00:08:41.812Z,46.8
2017-05-01T00:09:22.169Z,46.98
2017-05-01T00:10:02.676Z,46.8
2017-05-01T00:10:43.155Z,47.18
2017-05-01T00:11:23.693Z,47.18
2017-05-01T00:12:04.189Z,46.89
2017-05-01T00:12:44.671Z,47.08
2017-05-01T00:13:25.163Z,46.7
2017-05-01T00:14:05.662Z,46.98
2017-05-01T00:14:46.154Z,46.61
2017-05-01T00:15:26.663Z,46.8
2017-05-01T00:16:07.165Z,46.61
2017-05-01T00:16:47.672Z,46.41
2017-05-01T00:17:28.165Z,47.08
2017-05-01T00:18:08.638Z,47.08
2017-05-01T00:18:49.169Z,46.8
2017-05-01T00:19:29.655Z,47.18
2017-05-01T00:20:10.150Z,47.27
2017-05-01T00:20:50.641Z,46.98
2017-05-01T00:21:31.142Z,47.18
2017-05-01T00:22:11.606Z,47.27
2017-05-01T00:22:52.148Z,46.89
2017-05-01T00:23:32.602Z,47.27
2017-05-01T00:24:13.071Z,46.8
2017-05-01T00:24:53.572Z,46.41
2017-05-01T00:25:34.070Z,46.7
2017-05-01T00:26:14.601Z,46.61
2017-05-01T00:26:55.102Z,46.61
2017-05-01T00:27:35.620Z,47.18
2017-05-01T00:28:16.130Z,46.61
2017-05-01T00:28:56.621Z,46.7
2017-05-01T00:29:37.108Z,46.8
2017-05-01T00:30:17.631Z,46.98
2017-05-01T00:30:58.142Z,47.18
2017-05-01T00:31:38.649Z,47.18
2017-05-01T00:32:19.171Z,46.61
2017-05-01T00:32:59.690Z,46.61
2017-05-01T00:33:40.210Z,46.98
2017-05-01T00:34:20.730Z,46.98
2017-05-01T00:35:01.231Z,46.98
2017-05-01T00:35:41.764Z,47.18
2017-05-01T00:36:22.291Z,47.27
2017-05-01T00:37:02.805Z,46.98
2017-05-01T00:37:43.314Z,46.89
2017-05-01T00:38:23.833Z,46.89
2017-05-01T00:39:04.351Z,47.18
2017-05-01T00:39:44.878Z,46.89
2017-05-01T00:40:25.393Z,47.27
2017-05-01T00:41:05.933Z,47.56
2017-05-01T00:41:46.469Z,47.56
2017-05-01T00:43:44.610Z,46.98
2017-05-01T00:44:25.123Z,47.66
2017-05-01T00:45:05.639Z,48.23
2017-05-01T00:45:46.166Z,47.94
2017-05-01T00:46:26.679Z,47.94
2017-05-01T00:47:07.199Z,47.85
2017-05-01T00:47:47.721Z,48.8
2017-05-01T00:48:28.239Z,48.52
2017-05-01T00:49:08.762Z,48.23
2017-05-01T00:49:49.304Z,48.23
2017-05-01T00:50:29.828Z,48.71
2017-05-01T00:51:10.354Z,48.61
2017-05-01T00:51:50.878Z,48.61
2017-05-01T00:52:31.397Z,48.9
2017-05-01T00:53:11.926Z,48.8
2017-05-01T00:53:52.481Z,48.71
2017-05-01T00:54:32.945Z,48.42
2017-05-01T00:55:13.468Z,48.71
2017-05-01T00:55:53.982Z,48.71
2017-05-01T00:56:34.504Z,48.61
2017-05-01T00:57:15.022Z,48.61
2017-05-01T00:57:55.520Z,48.61
2017-05-01T00:58:36.043Z,48.8
2017-05-01T00:59:16.550Z,48.61
2017-05-01T00:59:57.115Z,48.9
2017-05-01T01:00:37.537Z,48.8
2017-05-01T01:01:18.052Z,48.61
2017-05-01T01:01:58.535Z,48.61
2017-05-01T01:02:39.023Z,49
2017-05-01T01:03:19.525Z,48.78
2017-05-01T01:04:00.026Z,49.84
2017-05-01T01:04:40.551Z,49.26
2017-05-01T01:05:20.980Z,49.35
2017-05-01T01:06:01.508Z,49.64
2017-05-01T01:06:42.000Z,49.74
2017-05-01T01:07:22.482Z,49.76
2017-05-01T01:08:02.976Z,49.84
2017-05-01T01:08:43.490Z,49.84
2017-05-01T01:09:23.992Z,50.05
2017-05-01T01:10:04.449Z,50.02
2017-05-01T01:10:44.974Z,50.21
2017-05-01T01:11:25.457Z,50.02
2017-05-01T01:12:05.929Z,50.21
2017-05-01T01:12:46.405Z,49.93
2017-05-01T01:13:26.859Z,49.93
2017-05-01T01:14:07.347Z,50.12
2017-05-01T01:14:47.864Z,50.79
2017-05-01T01:15:28.335Z,50.41
2017-05-01T01:16:08.802Z,50.41
2017-05-01T01:16:49.312Z,50.21
2017-05-01T01:17:29.808Z,50.31
2017-05-01T01:18:10.305Z,49.93
2017-05-01T01:18:50.814Z,50.12
2017-05-01T01:19:31.322Z,50.21
2017-05-01T01:20:11.852Z,50.41
2017-05-01T01:20:52.368Z,50.7
2017-05-01T01:21:32.890Z,50.5
2017-05-01T01:22:13.400Z,50.21
2017-05-01T01:22:53.921Z,50.02
2017-05-01T01:23:34.451Z,50.12
2017-05-01T01:24:14.953Z,50.21
2017-05-01T01:24:55.480Z,50.31
2017-05-01T01:25:35.988Z,49.93
2017-05-01T01:26:16.489Z,50.02
2017-05-01T01:26:57.004Z,49.74
2017-05-01T01:27:37.514Z,50.02
2017-05-01T01:28:18.036Z,50.12
2017-05-01T01:28:58.524Z,50.41
2017-05-01T01:29:39.043Z,50.5
2017-05-01T01:30:19.555Z,50.89
2017-05-01T01:31:00.067Z,51.24
2017-05-01T01:31:40.572Z,51.15
2017-05-01T01:32:21.094Z,50.95
2017-05-01T01:33:01.576Z,51.05
2017-05-01T01:33:42.096Z,51.53
2017-05-01T01:34:22.608Z,52.01
2017-05-01T01:35:03.106Z,52.58
2017-05-01T01:35:43.626Z,52.84
2017-05-01T01:36:24.135Z,53.22
2017-05-01T01:37:04.684Z,53.41
2017-05-01T01:37:45.177Z,53.51
2017-05-01T01:38:25.667Z,53.61
2017-05-01T01:39:06.182Z,53.8
2017-05-01T01:39:46.672Z,53.7
2017-05-01T01:40:27.173Z,53.8
2017-05-01T01:41:07.670Z,54.18
2017-05-01T01:41:48.200Z,53.99
2017-05-01T01:42:28.731Z,54.56
2017-05-01T01:43:09.233Z,54.56
2017-05-01T01:43:49.730Z,55.23
2017-05-01T01:44:30.284Z,55.13
2017-05-01T01:45:10.811Z,54.75
2017-05-01T01:45:51.318Z,55.3
2017-05-01T01:46:31.825Z,55.32
2017-05-01T01:47:12.347Z,55.23
2017-05-01T01:47:52.829Z,55.42
2017-05-01T01:48:33.362Z,55.04
2017-05-01T01:49:13.848Z,55.42
2017-05-01T01:49:54.322Z,55.4
2017-05-01T01:50:34.829Z,55.3
2017-05-01T01:51:15.344Z,55.01
2017-05-01T01:51:55.877Z,55.49
2017-05-01T01:52:36.354Z,55.58
2017-05-01T01:53:16.841Z,55.77
2017-05-01T01:53:57.362Z,55.8
2017-05-01T01:54:37.894Z,55.87
2017-05-01T01:55:18.413Z,55.77
2017-05-01T01:55:58.887Z,55.68
2017-05-01T01:56:39.420Z,55.49
2017-05-01T01:57:19.929Z,55.77
2017-05-01T01:58:00.435Z,55.87
2017-05-01T01:58:40.932Z,55.96
2017-05-01T01:59:21.449Z,56.06
2017-05-01T02:00:01.968Z,56.06
2017-05-01T02:00:42.471Z,55.58
2017-05-01T02:01:22.947Z,55.58
2017-05-01T02:03:36.205Z,56.06
2017-05-01T02:04:16.750Z,55.96
2017-05-01T02:04:57.254Z,55.8
2017-05-01T02:05:37.763Z,55.49
2017-05-01T02:06:18.319Z,55.04
2017-05-01T02:06:58.831Z,55.13
2017-05-01T02:07:39.349Z,55.13
2017-05-01T02:08:19.857Z,55.42
2017-05-01T02:09:00.374Z,55.01
2017-05-01T02:09:40.889Z,55.58
2017-05-01T02:10:21.406Z,55.58
2017-05-01T02:11:01.923Z,55.77
2017-05-01T02:11:42.441Z,55.87
2017-05-01T02:12:22.954Z,55.58
2017-05-01T02:13:03.473Z,56.06
2017-05-01T02:13:43.998Z,55.96
2017-05-01T02:14:24.515Z,56.25
2017-05-01T02:15:05.037Z,56.45
2017-05-01T02:15:45.559Z,56.92
2017-05-01T02:16:26.067Z,56.73
2017-05-01T02:17:06.583Z,56.45
2017-05-01T02:17:47.084Z,56.35
2017-05-01T02:18:27.585Z,56.16
2017-05-01T02:19:08.094Z,56.25
2017-05-01T02:19:48.602Z,56.06
2017-05-01T02:20:29.117Z,56.06
2017-05-01T02:21:09.619Z,55.87
2017-05-01T02:21:50.150Z,55.96
2017-05-01T02:22:30.655Z,55.87
2017-05-01T02:23:11.176Z,55.68
2017-05-01T02:23:51.682Z,55.96
2017-05-01T02:24:32.206Z,56.25
2017-05-01T02:25:12.727Z,56.35
2017-05-01T02:25:53.241Z,56.35
2017-05-01T02:26:33.744Z,56.35
2017-05-01T02:27:14.247Z,56.73
2017-05-01T02:27:54.767Z,56.92
2017-05-01T02:28:35.289Z,56.63
2017-05-01T02:29:15.822Z,56.54
2017-05-01T02:29:56.317Z,56.35
2017-05-01T02:30:36.839Z,56.73
2017-05-01T02:31:17.343Z,56.92
2017-05-01T02:31:57.844Z,57.11
2017-05-01T02:32:38.324Z,57.02
2017-05-01T02:33:18.833Z,57.02
2017-05-01T02:33:59.338Z,57.31
2017-05-01T02:34:39.835Z,57.02
2017-05-01T02:35:20.363Z,57.02
2017-05-01T02:36:00.874Z,57.02
2017-05-01T02:36:41.393Z,57.56
2017-05-01T02:37:21.914Z,57.46
2017-05-01T02:38:02.405Z,57.75
2017-05-01T02:38:42.901Z,57.94
2017-05-01T02:39:23.395Z,57.37
2017-05-01T02:40:03.927Z,57.68
2017-05-01T02:40:44.447Z,57.59
2017-05-01T02:41:24.972Z,57.4
2017-05-01T02:42:05.487Z,57.31
2017-05-01T02:42:46.034Z,57.59
2017-05-01T02:43:26.517Z,57.31
2017-05-01T02:44:07.028Z,57.4
2017-05-01T02:44:47.522Z,57.4
2017-05-01T02:45:28.024Z,57.11
2017-05-01T02:46:08.524Z,56.92
2017-05-01T02:46:49.064Z,57.31
2017-05-01T02:47:29.576Z,57.4
2017-05-01T02:48:10.084Z,57.02
2017-05-01T02:48:50.590Z,57.11
2017-05-01T02:49:31.091Z,57.4
2017-05-01T02:50:11.617Z,57.4
2017-05-01T02:50:52.109Z,57.31
2017-05-01T02:51:32.630Z,56.82
2017-05-01T02:52:13.157Z,56.82
2017-05-01T02:52:53.665Z,57.5
2017-05-01T02:53:34.167Z,57.11
2017-05-01T02:54:14.689Z,57.4
2017-05-01T02:54:55.181Z,57.4
2017-05-01T02:55:35.707Z,57.4
2017-05-01T02:57:28.807Z,57.4
2017-05-01T02:58:09.333Z,57.31
2017-05-01T02:58:49.838Z,57.65
2017-05-01T02:59:30.359Z,57.46
2017-05-01T03:00:10.895Z,57.85
2017-05-01T03:00:51.404Z,58.04
2017-05-01T03:01:31.926Z,58.33
2017-05-01T03:02:12.449Z,57.75
2017-05-01T03:02:52.956Z,57.56
2017-05-01T03:03:33.478Z,57.46
2017-05-01T03:04:13.990Z,57.46
2017-05-01T03:04:54.518Z,57.56
2017-05-01T03:05:35.025Z,57.18
2017-05-01T03:06:15.593Z,57.65
2017-05-01T03:06:56.078Z,57.94
2017-05-01T03:07:36.583Z,57.56
2017-05-01T03:08:17.097Z,57.37
2017-05-01T03:08:57.616Z,57.37
2017-05-01T03:09:38.155Z,57.46
2017-05-01T03:10:18.645Z,57.28
2017-05-01T03:10:59.141Z,57.5
2017-05-01T03:11:39.674Z,57.4
2017-05-01T03:12:20.159Z,57.11
2017-05-01T03:13:00.669Z,57.11
2017-05-01T03:13:41.182Z,57.02
2017-05-01T03:14:21.679Z,57.11
2017-05-01T03:15:02.207Z,57.11
2017-05-01T03:15:42.717Z,57.31
2017-05-01T03:16:23.220Z,56.63
2017-05-01T03:17:03.712Z,56.35
2017-05-01T03:17:44.223Z,56.54
2017-05-01T03:18:24.738Z,56.73
2017-05-01T03:19:05.247Z,56.63
2017-05-01T03:19:45.746Z,56.63
2017-05-01T03:20:26.291Z,56.82
2017-05-01T03:21:06.803Z,57.02
2017-05-01T03:21:47.302Z,57.21
2017-05-01T03:22:27.804Z,56.92
2017-05-01T03:23:08.316Z,56.95
2017-05-01T03:23:48.830Z,57.53
2017-05-01T03:24:29.345Z,57.4
2017-05-01T03:25:09.871Z,57.24
2017-05-01T03:25:50.398Z,57.4
2017-05-01T03:26:30.883Z,57.53
2017-05-01T03:27:11.415Z,57.62
2017-05-01T03:27:51.915Z,57.62
2017-05-01T03:28:32.421Z,57.71
2017-05-01T03:29:12.922Z,58.48
2017-05-01T03:29:53.433Z,58.1
2017-05-01T03:30:33.944Z,57.81
2017-05-01T03:31:14.448Z,58
2017-05-01T03:31:54.967Z,57.62
2017-05-01T03:32:35.487Z,57.81
2017-05-01T03:33:16.002Z,58.29
2017-05-01T03:33:56.530Z,57.81
2017-05-01T03:34:37.044Z,58.76
2017-05-01T03:35:17.560Z,58.58
2017-05-01T03:35:58.066Z,58.58
2017-05-01T03:36:38.599Z,58.58
2017-05-01T03:37:19.061Z,58.38
2017-05-01T03:37:59.585Z,58.76
2017-05-01T03:38:40.107Z,58.76
2017-05-01T03:39:20.584Z,59.24
2017-05-01T03:40:01.088Z,58.86
2017-05-01T03:40:41.586Z,58.76
2017-05-01T03:41:22.073Z,59.15
2017-05-01T03:42:02.562Z,58.8
2017-05-01T03:42:43.047Z,59.15
2017-05-01T03:43:23.545Z,59.44
2017-05-01T03:44:04.033Z,59.91
2017-05-01T03:44:44.576Z,59.66
2017-05-01T03:45:25.050Z,59.72
2017-05-01T03:46:05.558Z,59.66
2017-05-01T03:46:46.061Z,59.56
2017-05-01T03:47:26.573Z,59.66
2017-05-01T03:48:07.088Z,59.47
2017-05-01T03:48:47.604Z,59.66
2017-05-01T03:49:28.123Z,60.23
2017-05-01T03:50:08.642Z,59.75
2017-05-01T03:50:49.138Z,59.94
2017-05-01T03:51:29.656Z,59.94
2017-05-01T03:52:10.175Z,60.42
2017-05-01T03:52:50.689Z,60.99
2017-05-01T03:53:31.203Z,60.9
2017-05-01T03:54:11.696Z,61.19
2017-05-01T03:54:52.194Z,61.28
2017-05-01T03:55:32.686Z,61.19
2017-05-01T03:56:13.183Z,61.28
2017-05-01T03:58:11.528Z,61.66
2017-05-01T03:58:52.047Z,62.24
2017-05-01T03:59:32.549Z,62.52
2017-05-01T04:00:13.051Z,62.71
2017-05-01T04:00:53.568Z,62.71
2017-05-01T04:01:34.079Z,62.81
2017-05-01T04:02:14.585Z,62.78
2017-05-01T04:02:55.140Z,62.52
2017-05-01T04:03:35.681Z,62.62
2017-05-01T04:04:16.161Z,62.62
2017-05-01T04:04:56.658Z,62.81
2017-05-01T04:05:37.163Z,62.9
2017-05-01T04:06:17.678Z,63.67
2017-05-01T04:06:58.199Z,63.48
2017-05-01T04:07:38.682Z,63.83
2017-05-01T04:08:19.211Z,63.76
2017-05-01T04:08:59.706Z,64.34
2017-05-01T04:09:40.212Z,64.43
2017-05-01T04:10:20.724Z,65.11
2017-05-01T04:11:01.241Z,65.2
2017-05-01T04:11:41.739Z,64.72
2017-05-01T04:12:22.248Z,65.17
2017-05-01T04:13:02.736Z,65.97
2017-05-01T04:13:43.254Z,65.97
2017-05-01T04:14:23.753Z,66.06
2017-05-01T04:15:04.274Z,65.77
2017-05-01T04:15:44.790Z,65.2
2017-05-01T04:16:25.307Z,66.06
2017-05-01T04:17:05.817Z,65.87
2017-05-01T04:17:46.337Z,65.87
2017-05-01T04:18:26.859Z,65.97
2017-05-01T04:19:07.383Z,65.39
2017-05-01T04:19:47.884Z,65.68
2017-05-01T04:20:28.398Z,65.77
2017-05-01T04:21:08.917Z,66.25
2017-05-01T04:21:49.434Z,66.35
2017-05-01T04:22:29.931Z,65.87
2017-05-01T04:23:10.451Z,66.73
2017-05-01T04:23:50.976Z,66.06
2017-05-01T04:24:31.488Z,66.25
2017-05-01T04:25:12.001Z,66.16
2017-05-01T04:25:52.520Z,66.16
2017-05-01T04:26:33.028Z,66.44
2017-05-01T04:27:13.538Z,66.35
2017-05-01T04:27:54.055Z,66.16
2017-05-01T04:28:34.577Z,67.11
2017-05-01T04:29:15.054Z,67.02
2017-05-01T04:29:55.563Z,67.02
2017-05-01T04:30:36.074Z,66.44
2017-05-01T04:31:16.607Z,66.06
2017-05-01T04:31:57.127Z,66.25
2017-05-01T04:32:37.627Z,66.73
2017-05-01T04:33:18.141Z,67.21
2017-05-01T04:33:58.658Z,67.21
2017-05-01T04:34:39.179Z,67.4
2017-05-01T04:35:19.706Z,67.59
2017-05-01T04:37:12.797Z,67.97
2017-05-01T04:37:53.306Z,67.49
2017-05-01T04:38:33.829Z,67.49
2017-05-01T04:39:14.347Z,67.78
2017-05-01T04:39:54.860Z,67.59
2017-05-01T04:40:35.369Z,67.69
2017-05-01T04:41:15.888Z,67.69
2017-05-01T04:41:56.408Z,67.78
2017-05-01T04:42:36.960Z,67.97
2017-05-01T04:43:17.476Z,67.49
2017-05-01T04:43:57.992Z,67.49
2017-05-01T04:44:38.520Z,67.3
2017-05-01T04:45:19.030Z,66.6
2017-05-01T04:45:59.547Z,66.25
2017-05-01T04:46:40.053Z,66.35
2017-05-01T04:47:20.571Z,65.87
2017-05-01T04:48:01.084Z,65.58
2017-05-01T04:48:41.609Z,64.72
2017-05-01T04:49:22.082Z,65.07
2017-05-01T04:50:02.536Z,65.01
2017-05-01T04:50:43.061Z,65.17
2017-05-01T04:51:23.543Z,65.36
2017-05-01T04:52:04.054Z,65.36
2017-05-01T04:52:44.578Z,65.36
2017-05-01T04:53:25.072Z,66.03
2017-05-01T04:54:05.572Z,65.36
2017-05-01T04:54:46.085Z,64.88
2017-05-01T04:55:26.558Z,64.88
2017-05-01T04:56:07.088Z,64.98
2017-05-01T04:56:47.564Z,65.26
2017-05-01T04:57:28.074Z,65.17
2017-05-01T04:58:08.565Z,65.26
2017-05-01T04:58:49.060Z,65.26
2017-05-01T04:59:29.570Z,64.59
2017-05-01T05:00:10.067Z,64.78
2017-05-01T05:00:50.591Z,64.5
2017-05-01T05:01:31.204Z,64.59
2017-05-01T05:02:11.703Z,64.78
2017-05-01T05:02:52.197Z,64.59
2017-05-01T05:03:32.715Z,64.69
2017-05-01T05:04:13.228Z,64.78
2017-05-01T05:04:53.757Z,65.07
2017-05-01T05:05:34.279Z,64.78
2017-05-01T05:06:14.795Z,64.69
2017-05-01T05:06:55.308Z,64.78
2017-05-01T05:07:35.961Z,64.78
2017-05-01T05:08:16.372Z,64.69
2017-05-01T05:08:56.886Z,64.69
2017-05-01T05:09:37.366Z,64.59
2017-05-01T05:10:17.889Z,64.69
2017-05-01T05:10:58.417Z,64.5
2017-05-01T05:11:38.911Z,64.02
2017-05-01T05:12:19.423Z,64.22
2017-05-01T05:12:59.943Z,64.78
2017-05-01T05:13:40.437Z,64.69
2017-05-01T05:14:20.937Z,64.02
2017-05-01T05:15:01.437Z,64.12
2017-05-01T05:15:41.957Z,64.31
2017-05-01T05:16:22.496Z,64.02
2017-05-01T05:17:02.974Z,64.12
2017-05-01T05:17:43.487Z,64.22
2017-05-01T05:18:24.007Z,64.28
2017-05-01T05:19:04.513Z,64.22
2017-05-01T05:19:45.027Z,64.5
2017-05-01T05:20:25.548Z,64.78
2017-05-01T05:21:06.068Z,64.02
2017-05-01T05:21:46.595Z,64.56
2017-05-01T05:22:27.106Z,64.47
2017-05-01T05:23:07.601Z,64.65
2017-05-01T05:23:48.106Z,64.37
2017-05-01T05:24:28.619Z,64.65
2017-05-01T05:25:09.081Z,65.04
2017-05-01T05:25:49.569Z,65.04
2017-05-01T05:26:30.067Z,64.94
2017-05-01T05:27:10.557Z,65.33
2017-05-01T05:27:51.066Z,65.42
2017-05-01T05:28:31.566Z,65.61
2017-05-01T05:29:12.070Z,65.9
2017-05-01T05:29:52.575Z,66.19
2017-05-01T05:30:33.097Z,66.19
2017-05-01T05:31:13.623Z,66.19
2017-05-01T05:31:54.110Z,66.28
2017-05-01T05:32:34.625Z,66.09
2017-05-01T05:33:15.132Z,66.47
2017-05-01T05:33:55.642Z,66.56
2017-05-01T05:34:36.154Z,67.14
2017-05-01T05:35:16.677Z,67.52
2017-05-01T05:35:57.203Z,67.24
2017-05-01T05:36:37.708Z,67.33
2017-05-01T05:37:18.221Z,67.43
2017-05-01T05:37:58.736Z,67.52
2017-05-01T05:38:39.263Z,67.91
2017-05-01T05:39:19.789Z,67.21
2017-05-01T05:40:00.301Z,67.43
2017-05-01T05:40:40.815Z,67.43
2017-05-01T05:41:21.332Z,67.62
2017-05-01T05:42:01.845Z,67.33
2017-05-01T05:42:42.371Z,67.24
2017-05-01T05:43:22.908Z,67.14
2017-05-01T05:44:03.411Z,66.56
2017-05-01T05:44:43.926Z,66.56
2017-05-01T05:45:24.552Z,66.47
2017-05-01T05:46:05.076Z,66.19
2017-05-01T05:46:45.571Z,66.28
2017-05-01T05:47:26.082Z,66
2017-05-01T05:48:06.596Z,65.42
2017-05-01T05:48:47.106Z,65.23
2017-05-01T05:49:27.593Z,65.14
2017-05-01T05:50:08.153Z,64.65
2017-05-01T05:50:48.634Z,64.85
2017-05-01T05:51:29.148Z,64.85
2017-05-01T05:52:09.651Z,64.28
2017-05-01T05:52:50.151Z,63.6
2017-05-01T05:53:30.674Z,64.09
2017-05-01T05:54:11.160Z,63.89
2017-05-01T05:54:51.681Z,63.42
2017-05-01T05:55:32.212Z,63.51
2017-05-01T05:56:12.723Z,63.6
2017-05-01T05:56:53.255Z,63.89
2017-05-01T05:57:33.744Z,63.13
2017-05-01T05:58:14.255Z,63.32
2017-05-01T05:58:54.751Z,63.13
2017-05-01T05:59:35.258Z,63.23
2017-05-01T06:00:15.719Z,62.94
2017-05-01T06:00:56.230Z,63.03
2017-05-01T06:01:36.758Z,62.55
2017-05-01T06:02:17.282Z,62.65
2017-05-01T06:02:57.882Z,62.84
2017-05-01T06:03:38.357Z,62.94
2017-05-01T06:04:18.861Z,62.65
2017-05-01T06:04:59.326Z,62.65
2017-05-01T06:05:39.843Z,62.84
2017-05-01T06:06:20.355Z,62.84
2017-05-01T06:07:00.851Z,63.03
2017-05-01T06:07:41.340Z,62.65
2017-05-01T06:08:21.827Z,62.75
2017-05-01T06:09:02.323Z,62.46
2017-05-01T06:09:42.925Z,62.55
2017-05-01T06:10:23.304Z,62.75
2017-05-01T06:11:03.797Z,62.08
2017-05-01T06:11:45.500Z,61.69
2017-05-01T06:12:25.980Z,62.65
2017-05-01T06:13:06.510Z,62.75
2017-05-01T06:13:46.976Z,62.37
2017-05-01T06:14:27.482Z,62.84
2017-05-01T06:15:07.933Z,63.13
2017-05-01T06:15:48.416Z,62.84
2017-05-01T06:16:29.780Z,63.03
2017-05-01T06:17:10.228Z,63.51
2017-05-01T06:17:50.736Z,63.51
2017-05-01T06:18:31.268Z,63.8
2017-05-01T06:19:11.728Z,64.09
2017-05-01T06:19:52.209Z,63.86
2017-05-01T06:20:32.716Z,63.76
2017-05-01T06:21:13.235Z,64.15
2017-05-01T06:21:53.753Z,64.43
2017-05-01T06:22:34.293Z,64.05
2017-05-01T06:23:14.806Z,63.76
2017-05-01T06:23:55.322Z,64.05
2017-05-01T06:24:35.968Z,63.76
2017-05-01T06:25:16.405Z,64.25
2017-05-01T06:25:56.900Z,64.05
2017-05-01T06:26:37.897Z,63.76
2017-05-01T06:27:17.939Z,63.86
2017-05-01T06:27:58.441Z,63.29
2017-05-01T06:28:38.989Z,62.81
2017-05-01T06:29:19.473Z,63.48
2017-05-01T06:29:59.981Z,63.86
2017-05-01T06:30:40.478Z,63.39
2017-05-01T06:31:20.988Z,63.2
2017-05-01T06:32:01.489Z,63.2
2017-05-01T06:32:41.977Z,63.1
2017-05-01T06:33:22.478Z,63
2017-05-01T06:34:03.016Z,63.1
2017-05-01T06:34:43.534Z,63.1
2017-05-01T06:35:23.982Z,63.2
2017-05-01T06:36:04.490Z,63.29
2017-05-01T06:36:45.249Z,63.29
2017-05-01T06:37:25.550Z,62.91
2017-05-01T06:38:06.039Z,63
2017-05-01T06:38:46.544Z,63.39
2017-05-01T06:39:27.021Z,63.76
2017-05-01T06:40:07.524Z,63.48
2017-05-01T06:40:48.019Z,64.05
2017-05-01T06:41:28.489Z,64.05
2017-05-01T06:42:09.011Z,64.25
2017-05-01T06:42:49.460Z,64.91
2017-05-01T06:43:29.954Z,64.91
2017-05-01T06:44:10.457Z,64.81
2017-05-01T06:44:50.991Z,65.2
2017-05-01T06:45:31.476Z,65.2
2017-05-01T06:46:12.008Z,65.77
2017-05-01T06:46:52.505Z,66.35
2017-05-01T06:47:33.026Z,66.35
2017-05-01T06:48:13.532Z,66.15
2017-05-01T06:48:54.045Z,65.96
2017-05-01T06:49:34.562Z,67.01
2017-05-01T06:50:15.117Z,67.11
2017-05-01T06:50:55.625Z,67.11
2017-05-01T06:51:36.134Z,66.53
2017-05-01T06:52:16.655Z,67.68
2017-05-01T06:52:57.168Z,68.06
2017-05-01T06:53:37.646Z,67.97
2017-05-01T06:54:18.137Z,67.87
2017-05-01T06:54:58.626Z,67.97
2017-05-01T06:55:39.131Z,68.35
2017-05-01T06:56:19.664Z,68.79
2017-05-01T06:57:00.183Z,69.11
2017-05-01T06:57:40.700Z,69.08
2017-05-01T06:58:21.214Z,68.98
2017-05-01T06:59:01.726Z,69.65
2017-05-01T06:59:42.264Z,70.07
2017-05-01T07:00:22.768Z,70.45
2017-05-01T07:01:03.294Z,69.65
2017-05-01T07:01:43.821Z,69.93
2017-05-01T07:02:24.346Z,70.13
2017-05-01T07:03:04.871Z,70.89
2017-05-01T07:03:45.375Z,70.98
2017-05-01T07:04:25.916Z,71.27
2017-05-01T07:05:06.439Z,71.75
2017-05-01T07:05:46.939Z,71.27
2017-05-01T07:06:27.452Z,71.18
2017-05-01T07:07:07.975Z,71.18
2017-05-01T07:07:48.490Z,71.46
2017-05-01T07:08:29.008Z,71.94
2017-05-01T07:09:09.529Z,72.32
2017-05-01T07:09:50.039Z,71.94
2017-05-01T07:10:30.559Z,72.32
2017-05-01T07:11:11.076Z,72.8
2017-05-01T07:11:51.588Z,72.61
2017-05-01T07:12:32.110Z,72.89
2017-05-01T07:13:12.624Z,72.8
2017-05-01T07:13:53.148Z,72.51
2017-05-01T07:14:33.662Z,72.23
2017-05-01T07:15:14.185Z,72.71
2017-05-01T07:15:54.695Z,72.32
2017-05-01T07:16:35.221Z,72.32
2017-05-01T07:17:15.746Z,72.42
2017-05-01T07:17:56.240Z,72.99
2017-05-01T07:18:36.765Z,72.71
2017-05-01T07:19:17.282Z,72.8
2017-05-01T07:19:57.832Z,72.03
2017-05-01T07:20:38.348Z,72.42
2017-05-01T07:21:18.910Z,72.8
2017-05-01T07:21:59.597Z,72.61
2017-05-01T07:22:40.165Z,72.61
2017-05-01T07:23:20.653Z,72.42
2017-05-01T07:24:01.177Z,72.89
2017-05-01T07:24:41.757Z,72.71
2017-05-01T07:25:22.290Z,72.8
2017-05-01T07:26:02.760Z,73.08
2017-05-01T07:26:43.315Z,73.66
2017-05-01T07:27:23.748Z,74.04
2017-05-01T07:28:04.237Z,73.18
2017-05-01T07:28:44.936Z,73.66
2017-05-01T07:29:25.414Z,73.85
2017-05-01T07:30:06.070Z,74.13
2017-05-01T07:30:46.563Z,74.52
2017-05-01T07:31:27.070Z,74.52
2017-05-01T07:32:07.635Z,74.71
2017-05-01T07:32:48.323Z,75.28
2017-05-01T07:33:28.856Z,75.09
2017-05-01T07:34:09.362Z,74.96
2017-05-01T07:34:49.927Z,75.72
2017-05-01T07:35:30.444Z,75.72
2017-05-01T07:36:10.953Z,76.29
2017-05-01T07:36:51.550Z,76.29
2017-05-01T07:37:32.024Z,76.57
2017-05-01T07:38:12.507Z,76.62
2017-05-01T07:38:53.229Z,76.23
2017-05-01T07:39:36.928Z,76.71
2017-05-01T07:40:14.617Z,76.04
2017-05-01T07:40:55.249Z,76.57
2017-05-01T07:41:35.848Z,76.57
2017-05-01T07:42:16.191Z,77.06
2017-05-01T07:42:56.932Z,76.86
2017-05-01T07:43:37.468Z,77.62
2017-05-01T07:44:18.049Z,77.62
2017-05-01T07:44:58.518Z,77.53
2017-05-01T07:45:39.162Z,77.91
2017-05-01T07:46:19.582Z,77.62
2017-05-01T07:47:00.155Z,77.53
2017-05-01T07:47:40.598Z,77.62
2017-05-01T07:48:21.354Z,77.15
2017-05-01T07:49:02.255Z,77.67
2017-05-01T07:49:42.535Z,77.44
2017-05-01T07:50:23.684Z,76.86
2017-05-01T07:51:04.574Z,77.19
2017-05-01T07:51:45.115Z,77.09
2017-05-01T07:52:25.645Z,76.9
2017-05-01T07:53:06.095Z,77.38
2017-05-01T07:53:46.678Z,77.38
2017-05-01T07:54:28.035Z,77.09
2017-05-01T07:55:08.772Z,77.19
2017-05-01T07:55:50.126Z,77.67
2017-05-01T07:56:30.731Z,77.19
2017-05-01T07:57:11.286Z,77.53
2017-05-01T07:57:52.410Z,78.23
2017-05-01T07:58:33.312Z,77.76
2017-05-01T07:59:14.964Z,78.14
2017-05-01T07:59:55.848Z,78.23
2017-05-01T08:00:36.385Z,77.86
2017-05-01T08:01:17.118Z,78.23
2017-05-01T08:01:58.446Z,77.57
2017-05-01T08:02:40.912Z,78.23
2017-05-01T08:03:21.721Z,78.23
2017-05-01T08:04:02.853Z,78.3
2017-05-01T08:04:43.420Z,78.23
2017-05-01T08:05:24.172Z,77.86
2017-05-01T08:06:05.063Z,77.95
2017-05-01T08:06:45.586Z,78.23
2017-05-01T08:07:26.926Z,77.76
2017-05-01T08:08:07.624Z,76.81
2017-05-01T08:08:48.085Z,76.9
2017-05-01T08:09:29.032Z,76.81
2017-05-01T08:10:10.323Z,77.19
2017-05-01T08:10:50.825Z,76.9
2017-05-01T08:11:35.657Z,77.67
2017-05-01T08:12:16.144Z,77.47
2017-05-01T08:12:56.656Z,77.47
2017-05-01T08:13:37.095Z,77.47
2017-05-01T08:14:17.789Z,77.57
2017-05-01T08:14:58.179Z,77.57
2017-05-01T08:15:38.652Z,76.9
2017-05-01T08:16:19.284Z,77.38
2017-05-01T08:16:59.772Z,77.19
2017-05-01T08:17:40.318Z,76.71
2017-05-01T08:18:20.805Z,77.19
2017-05-01T08:19:01.429Z,76.71
2017-05-01T08:19:42.373Z,77
2017-05-01T08:20:23.792Z,76.81
2017-05-01T08:21:04.273Z,76.9
2017-05-01T08:21:44.852Z,77.09
2017-05-01T08:22:25.344Z,77.38
2017-05-01T08:23:06.293Z,78.05
2017-05-01T08:23:46.959Z,77.95
2017-05-01T08:24:29.407Z,78.33
2017-05-01T08:25:10.092Z,78.23
2017-05-01T08:25:51.698Z,78.23
2017-05-01T08:26:31.960Z,78.23
2017-05-01T08:27:12.980Z,77.19
2017-05-01T08:27:53.472Z,76.81
2017-05-01T08:28:34.755Z,76.71
2017-05-01T08:29:15.311Z,76.42
2017-05-01T08:29:55.814Z,76.71
2017-05-01T08:30:36.359Z,76.42
2017-05-01T08:31:16.912Z,76.62
2017-05-01T08:31:57.526Z,76.33
2017-05-01T08:32:38.096Z,76.14
2017-05-01T08:33:18.600Z,76.52
2017-05-01T08:33:59.164Z,76.9
2017-05-01T08:34:39.746Z,77.67
2017-05-01T08:35:20.973Z,78.05
2017-05-01T08:36:00.677Z,78.05
2017-05-01T08:36:41.253Z,77.76
2017-05-01T08:37:21.686Z,77.95
2017-05-01T08:38:02.240Z,78.23
2017-05-01T08:38:42.769Z,78.23
2017-05-01T08:39:23.235Z,77.86
2017-05-01T08:40:03.975Z,77.76
2017-05-01T08:40:44.605Z,78.14
2017-05-01T08:41:25.089Z,77.67
2017-05-01T08:42:05.834Z,77
2017-05-01T08:42:46.379Z,77.38
2017-05-01T08:43:27.013Z,76.9
2017-05-01T08:44:07.355Z,77
2017-05-01T08:44:47.856Z,76.62
2017-05-01T08:45:28.350Z,76.52
2017-05-01T08:46:08.924Z,76.9
2017-05-01T08:46:49.517Z,76.71
2017-05-01T08:47:30.011Z,77.19
2017-05-01T08:48:10.777Z,78.14
2017-05-01T08:48:51.458Z,77.19
2017-05-01T08:49:31.967Z,76.9
2017-05-01T08:50:12.470Z,77.09
2017-05-01T08:50:53.007Z,76.81
2017-05-01T08:51:33.489Z,76.62